Kennydale, Washington
Current Conditions -  °F | °C
As of 5:53 AM on Friday 24 Oct 2014 (Local Time) from KRNT Reporting Station
Haze Haze  
Wind Chill: 48°   Ceiling: Unl
Heat Index: 48°   Visibility: 5mi
Dew Point: 47°   Wind: 3mph
Humidity: 96%   Direction: 190°S
Pressure: 30.02"   Gusts: NA
Location:  47.5152°N, 122.184°W
Report Text: KRNT 241253Z 19003KT 5SM BR FEW055 09/08 A3002 RMK AO2 RAB1155E04 SLP172 P0000 T00890083
Loading
Personal Weather Stations






























Interactive Weather Map
Tropical Storm Tracking
New forecast layout! Learn more

10-Day Weather Forecast

Advertisements
Track Severe Weather on mobile